PWSweather.com
Personal Weather Stations
Station Observations
PICKERING
North Yorkshire, PickeringGB

North YorkshirePickeringGB

Lat: 54.2494, Lon: -0.7725

Elevation: 192

Station Type: Oregon Scientific WMR100

http://www.yorkshirewalker.co.uk/weather/

High Low Average
Temperature 51.3°F10.7°C 39.9°F4.4°C 44.7°F7.1°C
Dew Point 44.6°F7.0°C 28.4°F-2.0°C 36.7°F2.6°C
Winds 8.8 mph 14.2 kmh 0.4 mph 0.6 kmh 4.0 mph WNW6.4 kmh WNW
Wind Gusts 14.8 mph23.8 kmh 1.6 mph2.6 kmh 7.0 mph11.3 kmh
Humidity 84% 62% 73%
Pressure 30.54 in1034.2 mb 30.15 in1021.0 mb -
Precipitation 0.00 in0.0 mm - -
Hour Temp Dew Point Humidity Winds Wind Gusts Pressure Precip Precip Rate Daily Precip Total
12:00 AM 46.0°F7.8°C 41.0°F5.0°C 83% 2.2 mph SW3.5 kmh SW 3.6 mph5.8 kmh 30.15 in1021.0 mb 0.00 in0.0 mm 0.00 in0.0 mm 0.00 in0.0 mm
12:05 AM 45.9°F7.7°C 41.0°F5.0°C 83% 1.8 mph SW2.9 kmh SW 2.9 mph4.7 kmh 30.15 in1021.0 mb 0.00 in0.0 mm 0.00 in0.0 mm 0.00 in0.0 mm
12:10 AM 46.0°F7.8°C 41.0°F5.0°C 83% 2.6 mph WSW4.2 kmh WSW 7.4 mph11.9 kmh 30.15 in1021.0 mb 0.00 in0.0 mm 0.00 in0.0 mm 0.00 in0.0 mm
12:15 AM 46.6°F8.1°C 42.8°F6.0°C 83% 3.8 mph WSW6.1 kmh WSW 7.4 mph11.9 kmh 30.15 in1021.0 mb 0.00 in0.0 mm 0.00 in0.0 mm 0.00 in0.0 mm
12:20 AM 46.6°F8.1°C 42.8°F6.0°C 83% 4.9 mph WSW7.9 kmh WSW 8.9 mph14.3 kmh 30.15 in1021.0 mb 0.00 in0.0 mm 0.00 in0.0 mm 0.00 in0.0 mm
12:25 AM 46.6°F8.1°C 42.8°F6.0°C 83% 6.8 mph WSW10.9 kmh WSW 11.9 mph19.2 kmh 30.15 in1021.0 mb 0.00 in0.0 mm 0.00 in0.0 mm 0.00 in0.0 mm
12:30 AM 46.8°F8.2°C 42.8°F6.0°C 83% 7.9 mph WSW12.7 kmh WSW 12.5 mph20.1 kmh 30.15 in1021.0 mb 0.00 in0.0 mm 0.00 in0.0 mm 0.00 in0.0 mm
12:35 AM 46.8°F8.2°C 42.8°F6.0°C 83% 7.4 mph W11.9 kmh W 14.1 mph22.7 kmh 30.15 in1021.0 mb 0.00 in0.0 mm 0.00 in0.0 mm 0.00 in0.0 mm
12:40 AM 46.9°F8.3°C 42.8°F6.0°C 83% 6.3 mph W10.1 kmh W 14.1 mph22.7 kmh 30.15 in1021.0 mb 0.00 in0.0 mm 0.00 in0.0 mm 0.00 in0.0 mm
12:45 AM 46.8°F8.2°C 42.8°F6.0°C 83% 5.9 mph W9.5 kmh W 7.6 mph12.2 kmh 30.15 in1021.0 mb 0.00 in0.0 mm 0.00 in0.0 mm 0.00 in0.0 mm
12:50 AM 47.1°F8.4°C 42.8°F6.0°C 83% 5.1 mph W8.2 kmh W 6.5 mph10.5 kmh 30.15 in1021.0 mb 0.00 in0.0 mm 0.00 in0.0 mm 0.00 in0.0 mm
12:55 AM 47.3°F8.5°C 42.8°F6.0°C 83% 4.3 mph WSW6.9 kmh WSW 6.5 mph10.5 kmh 30.15 in1021.0 mb 0.00 in0.0 mm 0.00 in0.0 mm 0.00 in0.0 mm
01:00 AM 47.5°F8.6°C 42.8°F6.0°C 83% 3.7 mph WSW6.0 kmh WSW 5.8 mph9.3 kmh 30.15 in1021.0 mb 0.00 in0.0 mm 0.00 in0.0 mm 0.00 in0.0 mm
01:05 AM 47.7°F8.7°C 42.8°F6.0°C 83% 3.9 mph WSW6.3 kmh WSW 7.4 mph11.9 kmh 30.15 in1021.0 mb 0.00 in0.0 mm 0.00 in0.0 mm 0.00 in0.0 mm
01:10 AM 47.7°F8.7°C 42.8°F6.0°C 83% 3.9 mph W6.3 kmh W 7.4 mph11.9 kmh 30.15 in1021.0 mb 0.00 in0.0 mm 0.00 in0.0 mm 0.00 in0.0 mm
01:15 AM 47.8°F8.8°C 42.8°F6.0°C 83% 3.0 mph W4.8 kmh W 4.3 mph6.9 kmh 30.15 in1021.0 mb 0.00 in0.0 mm 0.00 in0.0 mm 0.00 in0.0 mm
01:20 AM 47.8°F8.8°C 42.8°F6.0°C 83% 3.7 mph WSW6.0 kmh WSW 6.5 mph10.5 kmh 30.18 in1022.0 mb 0.00 in0.0 mm 0.00 in0.0 mm 0.00 in0.0 mm
01:25 AM 47.8°F8.8°C 42.8°F6.0°C 83% 4.9 mph WSW7.9 kmh WSW 7.6 mph12.2 kmh 30.18 in1022.0 mb 0.00 in0.0 mm 0.00 in0.0 mm 0.00 in0.0 mm
01:30 AM 48.0°F8.9°C 42.8°F6.0°C 83% 4.9 mph W7.9 kmh W 8.7 mph14.0 kmh 30.18 in1022.0 mb 0.00 in0.0 mm 0.00 in0.0 mm 0.00 in0.0 mm
01:35 AM 48.0°F8.9°C 42.8°F6.0°C 83% 5.2 mph WSW8.4 kmh WSW 8.7 mph14.0 kmh 30.18 in1022.0 mb 0.00 in0.0 mm 0.00 in0.0 mm 0.00 in0.0 mm
01:40 AM 48.0°F8.9°C 42.8°F6.0°C 83% 6.3 mph WSW10.1 kmh WSW 8.7 mph14.0 kmh 30.18 in1022.0 mb 0.00 in0.0 mm 0.00 in0.0 mm 0.00 in0.0 mm
01:45 AM 48.2°F9.0°C 42.8°F6.0°C 83% 6.0 mph WSW9.7 kmh WSW 8.5 mph13.7 kmh 30.18 in1022.0 mb 0.00 in0.0 mm 0.00 in0.0 mm 0.00 in0.0 mm
01:50 AM 48.0°F8.9°C 42.8°F6.0°C 83% 4.4 mph WSW7.1 kmh WSW 8.1 mph13.0 kmh 30.18 in1022.0 mb 0.00 in0.0 mm 0.00 in0.0 mm 0.00 in0.0 mm
01:55 AM 48.0°F8.9°C 42.8°F6.0°C 83% 2.7 mph W4.3 kmh W 8.1 mph13.0 kmh 30.18 in1022.0 mb 0.00 in0.0 mm 0.00 in0.0 mm 0.00 in0.0 mm
02:00 AM 48.0°F8.9°C 42.8°F6.0°C 83% 2.6 mph WSW4.2 kmh WSW 5.8 mph9.3 kmh 30.18 in1022.0 mb 0.00 in0.0 mm 0.00 in0.0 mm 0.00 in0.0 mm
02:05 AM 48.0°F8.9°C 42.8°F6.0°C 83% 3.5 mph WSW5.6 kmh WSW 5.8 mph9.3 kmh 30.18 in1022.0 mb 0.00 in0.0 mm 0.00 in0.0 mm 0.00 in0.0 mm
02:10 AM 48.2°F9.0°C 42.8°F6.0°C 83% 4.9 mph WSW7.9 kmh WSW 7.8 mph12.6 kmh 30.18 in1022.0 mb 0.00 in0.0 mm 0.00 in0.0 mm 0.00 in0.0 mm
02:15 AM 48.2°F9.0°C 42.8°F6.0°C 83% 5.0 mph WSW8.0 kmh WSW 7.8 mph12.6 kmh 30.18 in1022.0 mb 0.00 in0.0 mm 0.00 in0.0 mm 0.00 in0.0 mm
02:20 AM 48.2°F9.0°C 42.8°F6.0°C 83% 3.9 mph WSW6.3 kmh WSW 6.3 mph10.1 kmh 30.18 in1022.0 mb 0.00 in0.0 mm 0.00 in0.0 mm 0.00 in0.0 mm
02:25 AM 48.2°F9.0°C 42.8°F6.0°C 83% 3.0 mph W4.8 kmh W 5.4 mph8.7 kmh 30.18 in1022.0 mb 0.00 in0.0 mm 0.00 in0.0 mm 0.00 in0.0 mm
02:30 AM 48.2°F9.0°C 42.8°F6.0°C 83% 2.2 mph WSW3.5 kmh WSW 3.4 mph5.5 kmh 30.18 in1022.0 mb 0.00 in0.0 mm 0.00 in0.0 mm 0.00 in0.0 mm
02:35 AM 48.2°F9.0°C 42.8°F6.0°C 83% 2.7 mph WSW4.3 kmh WSW 5.6 mph9.0 kmh 30.18 in1022.0 mb 0.00 in0.0 mm 0.00 in0.0 mm 0.00 in0.0 mm
02:40 AM 48.2°F9.0°C 42.8°F6.0°C 83% 4.3 mph WSW6.9 kmh WSW 5.8 mph9.3 kmh 30.18 in1022.0 mb 0.00 in0.0 mm 0.00 in0.0 mm 0.00 in0.0 mm
02:45 AM 48.2°F9.0°C 42.8°F6.0°C 83% 4.2 mph WSW6.8 kmh WSW 5.8 mph9.3 kmh 30.18 in1022.0 mb 0.00 in0.0 mm 0.00 in0.0 mm 0.00 in0.0 mm
02:50 AM 48.4°F9.1°C 42.8°F6.0°C 83% 3.8 mph WSW6.1 kmh WSW 6.5 mph10.5 kmh 30.18 in1022.0 mb 0.00 in0.0 mm 0.00 in0.0 mm 0.00 in0.0 mm
02:55 AM 48.2°F9.0°C 42.8°F6.0°C 83% 4.2 mph WSW6.8 kmh WSW 6.5 mph10.5 kmh 30.18 in1022.0 mb 0.00 in0.0 mm 0.00 in0.0 mm 0.00 in0.0 mm
03:00 AM 48.0°F8.9°C 42.8°F6.0°C 83% 4.2 mph WSW6.8 kmh WSW 6.0 mph9.7 kmh 30.18 in1022.0 mb 0.00 in0.0 mm 0.00 in0.0 mm 0.00 in0.0 mm
03:05 AM 48.0°F8.9°C 42.8°F6.0°C 83% 3.1 mph WSW5.0 kmh WSW 6.0 mph9.7 kmh 30.18 in1022.0 mb 0.00 in0.0 mm 0.00 in0.0 mm 0.00 in0.0 mm
03:10 AM 47.8°F8.8°C 42.8°F6.0°C 83% 1.6 mph WSW2.6 kmh WSW 2.9 mph4.7 kmh 30.18 in1022.0 mb 0.00 in0.0 mm 0.00 in0.0 mm 0.00 in0.0 mm
03:15 AM 47.8°F8.8°C 42.8°F6.0°C 83% 1.5 mph WSW2.4 kmh WSW 4.7 mph7.6 kmh 30.18 in1022.0 mb 0.00 in0.0 mm 0.00 in0.0 mm 0.00 in0.0 mm
03:20 AM 47.8°F8.8°C 42.8°F6.0°C 83% 1.8 mph WSW2.9 kmh WSW 4.7 mph7.6 kmh 30.18 in1022.0 mb 0.00 in0.0 mm 0.00 in0.0 mm 0.00 in0.0 mm
03:25 AM 47.8°F8.8°C 42.8°F6.0°C 83% 2.4 mph WSW3.9 kmh WSW 4.3 mph6.9 kmh 30.18 in1022.0 mb 0.00 in0.0 mm 0.00 in0.0 mm 0.00 in0.0 mm
03:30 AM 47.7°F8.7°C 42.8°F6.0°C 83% 4.1 mph WSW6.6 kmh WSW 7.4 mph11.9 kmh 30.18 in1022.0 mb 0.00 in0.0 mm 0.00 in0.0 mm 0.00 in0.0 mm
03:35 AM 47.7°F8.7°C 42.8°F6.0°C 84% 5.5 mph WSW8.9 kmh WSW 7.4 mph11.9 kmh 30.15 in1021.0 mb 0.00 in0.0 mm 0.00 in0.0 mm 0.00 in0.0 mm
03:40 AM 47.7°F8.7°C 42.8°F6.0°C 84% 5.0 mph WSW8.0 kmh WSW 6.5 mph10.5 kmh 30.15 in1021.0 mb 0.00 in0.0 mm 0.00 in0.0 mm 0.00 in0.0 mm
03:45 AM 47.5°F8.6°C 42.8°F6.0°C 84% 4.0 mph W6.4 kmh W 5.8 mph9.3 kmh 30.15 in1021.0 mb 0.00 in0.0 mm 0.00 in0.0 mm 0.00 in0.0 mm
03:50 AM 47.7°F8.7°C 42.8°F6.0°C 84% 4.0 mph W6.4 kmh W 7.8 mph12.6 kmh 30.18 in1022.0 mb 0.00 in0.0 mm 0.00 in0.0 mm 0.00 in0.0 mm
03:55 AM 47.7°F8.7°C 42.8°F6.0°C 84% 4.3 mph WSW6.9 kmh WSW 7.8 mph12.6 kmh 30.18 in1022.0 mb 0.00 in0.0 mm 0.00 in0.0 mm 0.00 in0.0 mm
04:00 AM 47.7°F8.7°C 42.8°F6.0°C 84% 5.3 mph WSW8.5 kmh WSW 8.7 mph14.0 kmh 30.18 in1022.0 mb 0.00 in0.0 mm 0.00 in0.0 mm 0.00 in0.0 mm
04:05 AM 47.7°F8.7°C 42.8°F6.0°C 84% 5.8 mph WSW9.3 kmh WSW 8.7 mph14.0 kmh 30.15 in1021.0 mb 0.00 in0.0 mm 0.00 in0.0 mm 0.00 in0.0 mm
04:10 AM 47.7°F8.7°C 42.8°F6.0°C 84% 4.6 mph WSW7.4 kmh WSW 7.8 mph12.6 kmh 30.15 in1021.0 mb 0.00 in0.0 mm 0.00 in0.0 mm 0.00 in0.0 mm
04:15 AM 47.7°F8.7°C 42.8°F6.0°C 84% 3.9 mph WSW6.3 kmh WSW 5.8 mph9.3 kmh 30.15 in1021.0 mb 0.00 in0.0 mm 0.00 in0.0 mm 0.00 in0.0 mm
04:20 AM 47.7°F8.7°C 42.8°F6.0°C 84% 3.9 mph W6.3 kmh W 5.6 mph9.0 kmh 30.18 in1022.0 mb 0.00 in0.0 mm 0.00 in0.0 mm 0.00 in0.0 mm
04:25 AM 47.7°F8.7°C 42.8°F6.0°C 84% 3.8 mph WSW6.1 kmh WSW 5.4 mph8.7 kmh 30.18 in1022.0 mb 0.00 in0.0 mm 0.00 in0.0 mm 0.00 in0.0 mm
04:30 AM 47.7°F8.7°C 42.8°F6.0°C 84% 4.4 mph WSW7.1 kmh WSW 7.8 mph12.6 kmh 30.18 in1022.0 mb 0.00 in0.0 mm 0.00 in0.0 mm 0.00 in0.0 mm
04:35 AM 47.7°F8.7°C 42.8°F6.0°C 84% 4.3 mph WSW6.9 kmh WSW 7.8 mph12.6 kmh 30.15 in1021.0 mb 0.00 in0.0 mm 0.00 in0.0 mm 0.00 in0.0 mm
04:40 AM 47.5°F8.6°C 42.8°F6.0°C 84% 3.3 mph WSW5.3 kmh WSW 6.3 mph10.1 kmh 30.15 in1021.0 mb 0.00 in0.0 mm 0.00 in0.0 mm 0.00 in0.0 mm
04:45 AM 47.8°F8.8°C 44.6°F7.0°C 84% 3.4 mph WSW5.5 kmh WSW 4.3 mph6.9 kmh 30.15 in1021.0 mb 0.00 in0.0 mm 0.00 in0.0 mm 0.00 in0.0 mm
04:50 AM 47.7°F8.7°C 42.8°F6.0°C 84% 2.9 mph WSW4.7 kmh WSW 4.3 mph6.9 kmh 30.18 in1022.0 mb 0.00 in0.0 mm 0.00 in0.0 mm 0.00 in0.0 mm
04:55 AM 47.7°F8.7°C 42.8°F6.0°C 84% 2.0 mph W3.2 kmh W 3.6 mph5.8 kmh 30.18 in1022.0 mb 0.00 in0.0 mm 0.00 in0.0 mm 0.00 in0.0 mm
05:00 AM 47.7°F8.7°C 42.8°F6.0°C 84% 2.4 mph W3.9 kmh W 3.6 mph5.8 kmh 30.18 in1022.0 mb 0.00 in0.0 mm 0.00 in0.0 mm 0.00 in0.0 mm
05:05 AM 47.5°F8.6°C 42.8°F6.0°C 84% 2.4 mph W3.9 kmh W 3.4 mph5.5 kmh 30.18 in1022.0 mb 0.00 in0.0 mm 0.00 in0.0 mm 0.00 in0.0 mm
05:10 AM 47.3°F8.5°C 42.8°F6.0°C 84% 2.1 mph W3.4 kmh W 3.1 mph5.0 kmh 30.18 in1022.0 mb 0.00 in0.0 mm 0.00 in0.0 mm 0.00 in0.0 mm
05:15 AM 47.3°F8.5°C 42.8°F6.0°C 84% 2.3 mph W3.7 kmh W 3.1 mph5.0 kmh 30.18 in1022.0 mb 0.00 in0.0 mm 0.00 in0.0 mm 0.00 in0.0 mm
05:20 AM 47.7°F8.7°C 42.8°F6.0°C 84% 3.0 mph WNW4.8 kmh WNW 7.4 mph11.9 kmh 30.18 in1022.0 mb 0.00 in0.0 mm 0.00 in0.0 mm 0.00 in0.0 mm
05:25 AM 47.7°F8.7°C 42.8°F6.0°C 84% 3.5 mph W5.6 kmh W 7.4 mph11.9 kmh 30.18 in1022.0 mb 0.00 in0.0 mm 0.00 in0.0 mm 0.00 in0.0 mm
05:30 AM 48.0°F8.9°C 44.6°F7.0°C 84% 4.0 mph WNW6.4 kmh WNW 6.5 mph10.5 kmh 30.18 in1022.0 mb 0.00 in0.0 mm 0.00 in0.0 mm 0.00 in0.0 mm
05:35 AM 48.0°F8.9°C 44.6°F7.0°C 84% 4.4 mph WNW7.1 kmh WNW 6.5 mph10.5 kmh 30.18 in1022.0 mb 0.00 in0.0 mm 0.00 in0.0 mm 0.00 in0.0 mm
05:40 AM 48.0°F8.9°C 44.6°F7.0°C 84% 3.9 mph WNW6.3 kmh WNW 6.5 mph10.5 kmh 30.18 in1022.0 mb 0.00 in0.0 mm 0.00 in0.0 mm 0.00 in0.0 mm
05:45 AM 48.2°F9.0°C 44.6°F7.0°C 84% 4.4 mph W7.1 kmh W 7.6 mph12.2 kmh 30.18 in1022.0 mb 0.00 in0.0 mm 0.00 in0.0 mm 0.00 in0.0 mm
05:50 AM 48.0°F8.9°C 44.6°F7.0°C 84% 4.6 mph W7.4 kmh W 7.6 mph12.2 kmh 30.18 in1022.0 mb 0.00 in0.0 mm 0.00 in0.0 mm 0.00 in0.0 mm
05:55 AM 48.0°F8.9°C 44.6°F7.0°C 84% 3.8 mph WNW6.1 kmh WNW 5.8 mph9.3 kmh 30.18 in1022.0 mb 0.00 in0.0 mm 0.00 in0.0 mm 0.00 in0.0 mm
06:00 AM 47.8°F8.8°C 44.6°F7.0°C 84% 3.7 mph W6.0 kmh W 6.3 mph10.1 kmh 30.18 in1022.0 mb 0.00 in0.0 mm 0.00 in0.0 mm 0.00 in0.0 mm
06:05 AM 48.0°F8.9°C 44.6°F7.0°C 84% 4.8 mph WNW7.7 kmh WNW 9.8 mph15.8 kmh 30.18 in1022.0 mb 0.00 in0.0 mm 0.00 in0.0 mm 0.00 in0.0 mm
06:10 AM 48.0°F8.9°C 44.6°F7.0°C 84% 5.7 mph WNW9.2 kmh WNW 9.8 mph15.8 kmh 30.18 in1022.0 mb 0.00 in0.0 mm 0.00 in0.0 mm 0.00 in0.0 mm
06:15 AM 48.0°F8.9°C 44.6°F7.0°C 84% 5.4 mph WNW8.7 kmh WNW 8.1 mph13.0 kmh 30.18 in1022.0 mb 0.00 in0.0 mm 0.00 in0.0 mm 0.00 in0.0 mm
06:20 AM 47.8°F8.8°C 44.6°F7.0°C 84% 4.6 mph WNW7.4 kmh WNW 8.1 mph13.0 kmh 30.18 in1022.0 mb 0.00 in0.0 mm 0.00 in0.0 mm 0.00 in0.0 mm
06:25 AM 48.0°F8.9°C 44.6°F7.0°C 84% 4.6 mph W7.4 kmh W 6.3 mph10.1 kmh 30.18 in1022.0 mb 0.00 in0.0 mm 0.00 in0.0 mm 0.00 in0.0 mm
06:30 AM 48.0°F8.9°C 44.6°F7.0°C 84% 4.6 mph W7.4 kmh W 6.3 mph10.1 kmh 30.18 in1022.0 mb 0.00 in0.0 mm 0.00 in0.0 mm 0.00 in0.0 mm
06:35 AM 48.0°F8.9°C 44.6°F7.0°C 84% 5.0 mph W8.0 kmh W 7.8 mph12.6 kmh 30.18 in1022.0 mb 0.00 in0.0 mm 0.00 in0.0 mm 0.00 in0.0 mm
06:40 AM 48.2°F9.0°C 44.6°F7.0°C 84% 5.0 mph WNW8.0 kmh WNW 7.8 mph12.6 kmh 30.18 in1022.0 mb 0.00 in0.0 mm 0.00 in0.0 mm 0.00 in0.0 mm
06:45 AM 48.2°F9.0°C 44.6°F7.0°C 84% 4.8 mph NW7.7 kmh NW 7.8 mph12.6 kmh 30.18 in1022.0 mb 0.00 in0.0 mm 0.00 in0.0 mm 0.00 in0.0 mm
06:50 AM 48.2°F9.0°C 44.6°F7.0°C 84% 4.3 mph NW6.9 kmh NW 7.8 mph12.6 kmh 30.18 in1022.0 mb 0.00 in0.0 mm 0.00 in0.0 mm 0.00 in0.0 mm
06:55 AM 48.2°F9.0°C 44.6°F7.0°C 84% 3.7 mph WNW6.0 kmh WNW 7.6 mph12.2 kmh 30.18 in1022.0 mb 0.00 in0.0 mm 0.00 in0.0 mm 0.00 in0.0 mm
07:00 AM 48.4°F9.1°C 42.8°F6.0°C 83% 4.6 mph NW7.4 kmh NW 9.2 mph14.8 kmh 30.18 in1022.0 mb 0.00 in0.0 mm 0.00 in0.0 mm 0.00 in0.0 mm
07:05 AM 48.0°F8.9°C 42.8°F6.0°C 83% 5.0 mph NNW8.0 kmh NNW 9.2 mph14.8 kmh 30.21 in1023.0 mb 0.00 in0.0 mm 0.00 in0.0 mm 0.00 in0.0 mm
07:10 AM 47.5°F8.6°C 42.8°F6.0°C 81% 4.4 mph N7.1 kmh N 8.5 mph13.7 kmh 30.21 in1023.0 mb 0.00 in0.0 mm 0.00 in0.0 mm 0.00 in0.0 mm
07:15 AM 47.1°F8.4°C 42.8°F6.0°C 80% 3.6 mph N5.8 kmh N 8.5 mph13.7 kmh 30.21 in1023.0 mb 0.00 in0.0 mm 0.00 in0.0 mm 0.00 in0.0 mm
07:20 AM 46.9°F8.3°C 41.0°F5.0°C 79% 3.7 mph N6.0 kmh N 8.5 mph13.7 kmh 30.21 in1023.0 mb 0.00 in0.0 mm 0.00 in0.0 mm 0.00 in0.0 mm
07:25 AM 46.8°F8.2°C 41.0°F5.0°C 79% 4.5 mph N7.2 kmh N 9.6 mph15.4 kmh 30.21 in1023.0 mb 0.00 in0.0 mm 0.00 in0.0 mm 0.00 in0.0 mm
07:30 AM 46.4°F8.0°C 41.0°F5.0°C 78% 3.6 mph N5.8 kmh N 9.6 mph15.4 kmh 30.21 in1023.0 mb 0.00 in0.0 mm 0.00 in0.0 mm 0.00 in0.0 mm
07:35 AM 46.2°F7.9°C 39.2°F4.0°C 78% 3.3 mph N5.3 kmh N 7.6 mph12.2 kmh 30.24 in1024.0 mb 0.00 in0.0 mm 0.00 in0.0 mm 0.00 in0.0 mm
07:40 AM 46.2°F7.9°C 39.2°F4.0°C 78% 3.9 mph N6.3 kmh N 8.1 mph13.0 kmh 30.24 in1024.0 mb 0.00 in0.0 mm 0.00 in0.0 mm 0.00 in0.0 mm
07:45 AM 46.2°F7.9°C 39.2°F4.0°C 78% 3.6 mph N5.8 kmh N 8.1 mph13.0 kmh 30.24 in1024.0 mb 0.00 in0.0 mm 0.00 in0.0 mm 0.00 in0.0 mm
07:50 AM 46.0°F7.8°C 39.2°F4.0°C 78% 3.2 mph N5.1 kmh N 5.6 mph9.0 kmh 30.24 in1024.0 mb 0.00 in0.0 mm 0.00 in0.0 mm 0.00 in0.0 mm
07:55 AM 45.9°F7.7°C 39.2°F4.0°C 78% 3.3 mph N5.3 kmh N 5.8 mph9.3 kmh 30.24 in1024.0 mb 0.00 in0.0 mm 0.00 in0.0 mm 0.00 in0.0 mm
08:00 AM 45.7°F7.6°C 39.2°F4.0°C 78% 3.0 mph N4.8 kmh N 5.8 mph9.3 kmh 30.24 in1024.0 mb 0.00 in0.0 mm 0.00 in0.0 mm 0.00 in0.0 mm
08:05 AM 45.7°F7.6°C 39.2°F4.0°C 78% 3.0 mph N4.8 kmh N 7.2 mph11.6 kmh 30.24 in1024.0 mb 0.00 in0.0 mm 0.00 in0.0 mm 0.00 in0.0 mm
08:10 AM 45.7°F7.6°C 39.2°F4.0°C 78% 3.2 mph NNW5.1 kmh NNW 7.2 mph11.6 kmh 30.24 in1024.0 mb 0.00 in0.0 mm 0.00 in0.0 mm 0.00 in0.0 mm
08:15 AM 45.7°F7.6°C 39.2°F4.0°C 78% 2.9 mph N4.7 kmh N 4.9 mph7.9 kmh 30.24 in1024.0 mb 0.00 in0.0 mm 0.00 in0.0 mm 0.00 in0.0 mm
08:20 AM 45.5°F7.5°C 39.2°F4.0°C 78% 1.7 mph NW2.7 kmh NW 4.9 mph7.9 kmh 30.27 in1025.1 mb 0.00 in0.0 mm 0.00 in0.0 mm 0.00 in0.0 mm
08:25 AM 45.3°F7.4°C 39.2°F4.0°C 78% 0.6 mph WNW1.0 kmh WNW 1.6 mph2.6 kmh 30.27 in1025.1 mb 0.00 in0.0 mm 0.00 in0.0 mm 0.00 in0.0 mm
08:30 AM 45.3°F7.4°C 39.2°F4.0°C 78% 0.8 mph NW1.3 kmh NW 1.6 mph2.6 kmh 30.27 in1025.1 mb 0.00 in0.0 mm 0.00 in0.0 mm 0.00 in0.0 mm
08:35 AM 45.1°F7.3°C 39.2°F4.0°C 78% 1.4 mph NW2.3 kmh NW 2.7 mph4.3 kmh 30.27 in1025.1 mb 0.00 in0.0 mm 0.00 in0.0 mm 0.00 in0.0 mm
08:40 AM 45.1°F7.3°C 39.2°F4.0°C 78% 2.0 mph NW3.2 kmh NW 3.1 mph5.0 kmh 30.27 in1025.1 mb 0.00 in0.0 mm 0.00 in0.0 mm 0.00 in0.0 mm
08:50 AM 45.0°F7.2°C 39.2°F4.0°C 78% 2.2 mph NNW3.5 kmh NNW 3.6 mph5.8 kmh 30.27 in1025.1 mb 0.00 in0.0 mm 0.00 in0.0 mm 0.00 in0.0 mm
08:55 AM 45.0°F7.2°C 39.2°F4.0°C 78% 3.0 mph N4.8 kmh N 4.3 mph6.9 kmh 30.27 in1025.1 mb 0.00 in0.0 mm 0.00 in0.0 mm 0.00 in0.0 mm
09:00 AM 44.8°F7.1°C 37.4°F3.0°C 78% 3.6 mph NNW5.8 kmh NNW 5.6 mph9.0 kmh 30.27 in1025.1 mb 0.00 in0.0 mm 0.00 in0.0 mm 0.00 in0.0 mm
09:05 AM 44.8°F7.1°C 37.4°F3.0°C 78% 3.1 mph NW5.0 kmh NW 5.6 mph9.0 kmh 30.27 in1025.1 mb 0.00 in0.0 mm 0.00 in0.0 mm 0.00 in0.0 mm
09:10 AM 44.8°F7.1°C 37.4°F3.0°C 77% 2.8 mph NW4.5 kmh NW 4.0 mph6.4 kmh 30.27 in1025.1 mb 0.00 in0.0 mm 0.00 in0.0 mm 0.00 in0.0 mm
09:15 AM 44.8°F7.1°C 37.4°F3.0°C 77% 3.1 mph NW5.0 kmh NW 5.4 mph8.7 kmh 30.27 in1025.1 mb 0.00 in0.0 mm 0.00 in0.0 mm 0.00 in0.0 mm
09:20 AM 45.0°F7.2°C 39.2°F4.0°C 77% 3.4 mph NW5.5 kmh NW 5.6 mph9.0 kmh 30.27 in1025.1 mb 0.00 in0.0 mm 0.00 in0.0 mm 0.00 in0.0 mm
09:25 AM 45.0°F7.2°C 39.2°F4.0°C 77% 3.4 mph NW5.5 kmh NW 5.6 mph9.0 kmh 30.27 in1025.1 mb 0.00 in0.0 mm 0.00 in0.0 mm 0.00 in0.0 mm
09:30 AM 45.1°F7.3°C 37.4°F3.0°C 76% 3.1 mph NNW5.0 kmh NNW 4.7 mph7.6 kmh 30.27 in1025.1 mb 0.00 in0.0 mm 0.00 in0.0 mm 0.00 in0.0 mm
09:35 AM 45.1°F7.3°C 37.4°F3.0°C 76% 2.9 mph NNW4.7 kmh NNW 4.9 mph7.9 kmh 30.27 in1025.1 mb 0.00 in0.0 mm 0.00 in0.0 mm 0.00 in0.0 mm
09:40 AM 45.0°F7.2°C 37.4°F3.0°C 76% 2.9 mph N4.7 kmh N 4.9 mph7.9 kmh 30.27 in1025.1 mb 0.00 in0.0 mm 0.00 in0.0 mm 0.00 in0.0 mm
09:45 AM 45.1°F7.3°C 37.4°F3.0°C 75% 4.1 mph N6.6 kmh N 7.4 mph11.9 kmh 30.27 in1025.1 mb 0.00 in0.0 mm 0.00 in0.0 mm 0.00 in0.0 mm
09:50 AM 45.1°F7.3°C 37.4°F3.0°C 75% 5.5 mph NNW8.9 kmh NNW 8.7 mph14.0 kmh 30.27 in1025.1 mb 0.00 in0.0 mm 0.00 in0.0 mm 0.00 in0.0 mm
09:55 AM 45.0°F7.2°C 37.4°F3.0°C 74% 5.0 mph NW8.0 kmh NW 8.7 mph14.0 kmh 30.27 in1025.1 mb 0.00 in0.0 mm 0.00 in0.0 mm 0.00 in0.0 mm
10:00 AM 44.6°F7.0°C 37.4°F3.0°C 74% 3.9 mph NW6.3 kmh NW 5.4 mph8.7 kmh 30.27 in1025.1 mb 0.00 in0.0 mm 0.00 in0.0 mm 0.00 in0.0 mm
10:05 AM 44.4°F6.9°C 37.4°F3.0°C 74% 4.5 mph NW7.2 kmh NW 6.5 mph10.5 kmh 30.30 in1026.1 mb 0.00 in0.0 mm 0.00 in0.0 mm 0.00 in0.0 mm
10:10 AM 44.1°F6.7°C 37.4°F3.0°C 74% 4.3 mph NW6.9 kmh NW 6.5 mph10.5 kmh 30.30 in1026.1 mb 0.00 in0.0 mm 0.00 in0.0 mm 0.00 in0.0 mm
10:15 AM 44.1°F6.7°C 37.4°F3.0°C 74% 4.0 mph NW6.4 kmh NW 6.5 mph10.5 kmh 30.30 in1026.1 mb 0.00 in0.0 mm 0.00 in0.0 mm 0.00 in0.0 mm
10:20 AM 43.9°F6.6°C 37.4°F3.0°C 74% 4.3 mph NW6.9 kmh NW 6.3 mph10.1 kmh 30.30 in1026.1 mb 0.00 in0.0 mm 0.00 in0.0 mm 0.00 in0.0 mm
10:25 AM 43.9°F6.6°C 37.4°F3.0°C 74% 4.6 mph NW7.4 kmh NW 7.4 mph11.9 kmh 30.30 in1026.1 mb 0.00 in0.0 mm 0.00 in0.0 mm 0.00 in0.0 mm
10:30 AM 44.1°F6.7°C 37.4°F3.0°C 74% 4.9 mph NW7.9 kmh NW 7.4 mph11.9 kmh 30.30 in1026.1 mb 0.00 in0.0 mm 0.00 in0.0 mm 0.00 in0.0 mm
10:35 AM 44.1°F6.7°C 35.6°F2.0°C 73% 5.0 mph NNW8.0 kmh NNW 8.5 mph13.7 kmh 30.30 in1026.1 mb 0.00 in0.0 mm 0.00 in0.0 mm 0.00 in0.0 mm
10:40 AM 44.1°F6.7°C 35.6°F2.0°C 73% 4.6 mph NNW7.4 kmh NNW 8.5 mph13.7 kmh 30.30 in1026.1 mb 0.00 in0.0 mm 0.00 in0.0 mm 0.00 in0.0 mm
10:45 AM 44.1°F6.7°C 35.6°F2.0°C 73% 4.3 mph NNW6.9 kmh NNW 7.6 mph12.2 kmh 30.30 in1026.1 mb 0.00 in0.0 mm 0.00 in0.0 mm 0.00 in0.0 mm
10:50 AM 43.9°F6.6°C 35.6°F2.0°C 73% 4.4 mph NNW7.1 kmh NNW 7.6 mph12.2 kmh 30.30 in1026.1 mb 0.00 in0.0 mm 0.00 in0.0 mm 0.00 in0.0 mm
10:55 AM 43.9°F6.6°C 35.6°F2.0°C 73% 3.9 mph NNW6.3 kmh NNW 5.6 mph9.0 kmh 30.30 in1026.1 mb 0.00 in0.0 mm 0.00 in0.0 mm 0.00 in0.0 mm
11:00 AM 43.9°F6.6°C 35.6°F2.0°C 73% 2.8 mph NW4.5 kmh NW 4.3 mph6.9 kmh 30.30 in1026.1 mb 0.00 in0.0 mm 0.00 in0.0 mm 0.00 in0.0 mm
11:05 AM 44.1°F6.7°C 35.6°F2.0°C 73% 3.2 mph NW5.1 kmh NW 6.3 mph10.1 kmh 30.33 in1027.1 mb 0.00 in0.0 mm 0.00 in0.0 mm 0.00 in0.0 mm
11:10 AM 44.2°F6.8°C 35.6°F2.0°C 73% 4.4 mph NW7.1 kmh NW 8.5 mph13.7 kmh 30.33 in1027.1 mb 0.00 in0.0 mm 0.00 in0.0 mm 0.00 in0.0 mm
11:15 AM 44.2°F6.8°C 35.6°F2.0°C 73% 4.4 mph NW7.1 kmh NW 8.5 mph13.7 kmh 30.33 in1027.1 mb 0.00 in0.0 mm 0.00 in0.0 mm 0.00 in0.0 mm
11:20 AM 44.1°F6.7°C 35.6°F2.0°C 73% 4.2 mph NW6.8 kmh NW 6.5 mph10.5 kmh 30.33 in1027.1 mb 0.00 in0.0 mm 0.00 in0.0 mm 0.00 in0.0 mm
11:25 AM 44.2°F6.8°C 35.6°F2.0°C 72% 4.4 mph NW7.1 kmh NW 6.5 mph10.5 kmh 30.33 in1027.1 mb 0.00 in0.0 mm 0.00 in0.0 mm 0.00 in0.0 mm
11:30 AM 44.2°F6.8°C 35.6°F2.0°C 72% 4.0 mph NW6.4 kmh NW 5.4 mph8.7 kmh 30.33 in1027.1 mb 0.00 in0.0 mm 0.00 in0.0 mm 0.00 in0.0 mm
11:35 AM 44.2°F6.8°C 35.6°F2.0°C 72% 3.9 mph NW6.3 kmh NW 5.4 mph8.7 kmh 30.33 in1027.1 mb 0.00 in0.0 mm 0.00 in0.0 mm 0.00 in0.0 mm
11:40 AM 44.4°F6.9°C 37.4°F3.0°C 72% 4.0 mph NW6.4 kmh NW 7.6 mph12.2 kmh 30.33 in1027.1 mb 0.00 in0.0 mm 0.00 in0.0 mm 0.00 in0.0 mm
11:45 AM 44.4°F6.9°C 35.6°F2.0°C 71% 3.4 mph WNW5.5 kmh WNW 7.6 mph12.2 kmh 30.33 in1027.1 mb 0.00 in0.0 mm 0.00 in0.0 mm 0.00 in0.0 mm
11:50 AM 45.1°F7.3°C 37.4°F3.0°C 71% 4.0 mph NW6.4 kmh NW 6.3 mph10.1 kmh 30.33 in1027.1 mb 0.00 in0.0 mm 0.00 in0.0 mm 0.00 in0.0 mm
11:55 AM 46.2°F7.9°C 37.4°F3.0°C 70% 4.4 mph NW7.1 kmh NW 6.3 mph10.1 kmh 30.33 in1027.1 mb 0.00 in0.0 mm 0.00 in0.0 mm 0.00 in0.0 mm
12:00 PM 46.4°F8.0°C 37.4°F3.0°C 70% 3.8 mph NW6.1 kmh NW 6.3 mph10.1 kmh 30.33 in1027.1 mb 0.00 in0.0 mm 0.00 in0.0 mm 0.00 in0.0 mm
12:05 PM 47.7°F8.7°C 37.4°F3.0°C 69% 4.5 mph NW7.2 kmh NW 7.8 mph12.6 kmh 30.33 in1027.1 mb 0.00 in0.0 mm 0.00 in0.0 mm 0.00 in0.0 mm
12:10 PM 48.9°F9.4°C 39.2°F4.0°C 68% 4.7 mph NW7.6 kmh NW 7.8 mph12.6 kmh 30.33 in1027.1 mb 0.00 in0.0 mm 0.00 in0.0 mm 0.00 in0.0 mm
12:15 PM 49.5°F9.7°C 39.2°F4.0°C 67% 4.6 mph NNW7.4 kmh NNW 6.3 mph10.1 kmh 30.33 in1027.1 mb 0.00 in0.0 mm 0.00 in0.0 mm 0.00 in0.0 mm
12:20 PM 50.0°F10.0°C 39.2°F4.0°C 67% 4.1 mph NNW6.6 kmh NNW 6.3 mph10.1 kmh 30.33 in1027.1 mb 0.00 in0.0 mm 0.00 in0.0 mm 0.00 in0.0 mm
12:25 PM 50.2°F10.1°C 39.2°F4.0°C 67% 3.2 mph NW5.1 kmh NW 6.3 mph10.1 kmh 30.33 in1027.1 mb 0.00 in0.0 mm 0.00 in0.0 mm 0.00 in0.0 mm
12:30 PM 50.4°F10.2°C 41.0°F5.0°C 67% 2.8 mph NW4.5 kmh NW 6.3 mph10.1 kmh 30.33 in1027.1 mb 0.00 in0.0 mm 0.00 in0.0 mm 0.00 in0.0 mm
12:35 PM 50.5°F10.3°C 41.0°F5.0°C 67% 3.3 mph NW5.3 kmh NW 5.6 mph9.0 kmh 30.33 in1027.1 mb 0.00 in0.0 mm 0.00 in0.0 mm 0.00 in0.0 mm
12:40 PM 51.3°F10.7°C 41.0°F5.0°C 66% 3.2 mph NNW5.1 kmh NNW 5.4 mph8.7 kmh 30.33 in1027.1 mb 0.00 in0.0 mm 0.00 in0.0 mm 0.00 in0.0 mm
12:45 PM 50.5°F10.3°C 39.2°F4.0°C 66% 3.3 mph NW5.3 kmh NW 7.8 mph12.6 kmh 30.33 in1027.1 mb 0.00 in0.0 mm 0.00 in0.0 mm 0.00 in0.0 mm
12:50 PM 50.7°F10.4°C 39.2°F4.0°C 66% 4.1 mph NW6.6 kmh NW 7.8 mph12.6 kmh 30.33 in1027.1 mb 0.00 in0.0 mm 0.00 in0.0 mm 0.00 in0.0 mm
12:55 PM 50.2°F10.1°C 39.2°F4.0°C 65% 3.7 mph NW6.0 kmh NW 7.8 mph12.6 kmh 30.33 in1027.1 mb 0.00 in0.0 mm 0.00 in0.0 mm 0.00 in0.0 mm
01:00 PM 50.4°F10.2°C 39.2°F4.0°C 65% 3.3 mph NNW5.3 kmh NNW 4.9 mph7.9 kmh 30.33 in1027.1 mb 0.00 in0.0 mm 0.00 in0.0 mm 0.00 in0.0 mm
01:05 PM 49.8°F9.9°C 39.2°F4.0°C 66% 3.8 mph NNW6.1 kmh NNW 7.4 mph11.9 kmh 30.33 in1027.1 mb 0.00 in0.0 mm 0.00 in0.0 mm 0.00 in0.0 mm
01:10 PM 49.8°F9.9°C 39.2°F4.0°C 65% 4.0 mph NNW6.4 kmh NNW 7.4 mph11.9 kmh 30.33 in1027.1 mb 0.00 in0.0 mm 0.00 in0.0 mm 0.00 in0.0 mm
01:15 PM 48.6°F9.2°C 37.4°F3.0°C 65% 4.2 mph NNW6.8 kmh NNW 8.1 mph13.0 kmh 30.33 in1027.1 mb 0.00 in0.0 mm 0.00 in0.0 mm 0.00 in0.0 mm
01:20 PM 48.2°F9.0°C 37.4°F3.0°C 65% 5.2 mph NNW8.4 kmh NNW 8.1 mph13.0 kmh 30.36 in1028.1 mb 0.00 in0.0 mm 0.00 in0.0 mm 0.00 in0.0 mm
01:25 PM 47.5°F8.6°C 37.4°F3.0°C 66% 5.2 mph NNW8.4 kmh NNW 7.6 mph12.2 kmh 30.36 in1028.1 mb 0.00 in0.0 mm 0.00 in0.0 mm 0.00 in0.0 mm
01:30 PM 47.1°F8.4°C 37.4°F3.0°C 66% 4.6 mph NNW7.4 kmh NNW 6.5 mph10.5 kmh 30.36 in1028.1 mb 0.00 in0.0 mm 0.00 in0.0 mm 0.00 in0.0 mm
01:35 PM 46.8°F8.2°C 35.6°F2.0°C 66% 4.5 mph NW7.2 kmh NW 6.5 mph10.5 kmh 30.36 in1028.1 mb 0.00 in0.0 mm 0.00 in0.0 mm 0.00 in0.0 mm
01:40 PM 46.4°F8.0°C 37.4°F3.0°C 67% 5.3 mph NW8.5 kmh NW 8.7 mph14.0 kmh 30.36 in1028.1 mb 0.00 in0.0 mm 0.00 in0.0 mm 0.00 in0.0 mm
01:45 PM 45.9°F7.7°C 35.6°F2.0°C 66% 6.1 mph NW9.8 kmh NW 8.7 mph14.0 kmh 30.36 in1028.1 mb 0.00 in0.0 mm 0.00 in0.0 mm 0.00 in0.0 mm
01:50 PM 45.7°F7.6°C 35.6°F2.0°C 66% 6.6 mph N10.6 kmh N 11.9 mph19.2 kmh 30.36 in1028.1 mb 0.00 in0.0 mm 0.00 in0.0 mm 0.00 in0.0 mm
01:55 PM 46.0°F7.8°C 35.6°F2.0°C 67% 7.6 mph N12.2 kmh N 11.9 mph19.2 kmh 30.36 in1028.1 mb 0.00 in0.0 mm 0.00 in0.0 mm 0.00 in0.0 mm
02:00 PM 46.4°F8.0°C 35.6°F2.0°C 66% 6.0 mph NW9.7 kmh NW 10.1 mph16.3 kmh 30.36 in1028.1 mb 0.00 in0.0 mm 0.00 in0.0 mm 0.00 in0.0 mm
02:05 PM 46.6°F8.1°C 35.6°F2.0°C 66% 4.6 mph NNW7.4 kmh NNW 7.4 mph11.9 kmh 30.36 in1028.1 mb 0.00 in0.0 mm 0.00 in0.0 mm 0.00 in0.0 mm
02:10 PM 46.2°F7.9°C 35.6°F2.0°C 66% 6.3 mph NNW10.1 kmh NNW 10.3 mph16.6 kmh 30.36 in1028.1 mb 0.00 in0.0 mm 0.00 in0.0 mm 0.00 in0.0 mm
02:15 PM 45.7°F7.6°C 35.6°F2.0°C 66% 7.6 mph NNW12.2 kmh NNW 12.3 mph19.8 kmh 30.36 in1028.1 mb 0.00 in0.0 mm 0.00 in0.0 mm 0.00 in0.0 mm
02:20 PM 45.3°F7.4°C 33.8°F1.0°C 66% 7.8 mph NNW12.6 kmh NNW 12.3 mph19.8 kmh 30.36 in1028.1 mb 0.00 in0.0 mm 0.00 in0.0 mm 0.00 in0.0 mm
02:25 PM 45.0°F7.2°C 33.8°F1.0°C 66% 7.5 mph NNW12.1 kmh NNW 11.9 mph19.2 kmh 30.36 in1028.1 mb 0.00 in0.0 mm 0.00 in0.0 mm 0.00 in0.0 mm
02:30 PM 45.0°F7.2°C 33.8°F1.0°C 66% 6.1 mph NNW9.8 kmh NNW 11.9 mph19.2 kmh 30.36 in1028.1 mb 0.00 in0.0 mm 0.00 in0.0 mm 0.00 in0.0 mm
02:35 PM 44.8°F7.1°C 33.8°F1.0°C 66% 5.7 mph N9.2 kmh N 9.6 mph15.4 kmh 30.36 in1028.1 mb 0.00 in0.0 mm 0.00 in0.0 mm 0.00 in0.0 mm
02:40 PM 44.8°F7.1°C 33.8°F1.0°C 66% 6.9 mph N11.1 kmh N 10.3 mph16.6 kmh 30.36 in1028.1 mb 0.00 in0.0 mm 0.00 in0.0 mm 0.00 in0.0 mm
02:45 PM 44.6°F7.0°C 33.8°F1.0°C 66% 5.9 mph N9.5 kmh N 10.3 mph16.6 kmh 30.36 in1028.1 mb 0.00 in0.0 mm 0.00 in0.0 mm 0.00 in0.0 mm
02:50 PM 44.2°F6.8°C 33.8°F1.0°C 66% 5.9 mph NNW9.5 kmh NNW 8.5 mph13.7 kmh 30.39 in1029.1 mb 0.00 in0.0 mm 0.00 in0.0 mm 0.00 in0.0 mm
02:55 PM 44.2°F6.8°C 33.8°F1.0°C 66% 6.5 mph NW10.5 kmh NW 11.0 mph17.7 kmh 30.39 in1029.1 mb 0.00 in0.0 mm 0.00 in0.0 mm 0.00 in0.0 mm
03:00 PM 44.2°F6.8°C 33.8°F1.0°C 67% 5.4 mph NNW8.7 kmh NNW 11.0 mph17.7 kmh 30.39 in1029.1 mb 0.00 in0.0 mm 0.00 in0.0 mm 0.00 in0.0 mm
03:05 PM 44.2°F6.8°C 33.8°F1.0°C 67% 5.4 mph NNW8.7 kmh NNW 8.5 mph13.7 kmh 30.39 in1029.1 mb 0.00 in0.0 mm 0.00 in0.0 mm 0.00 in0.0 mm
03:10 PM 44.1°F6.7°C 33.8°F1.0°C 67% 6.7 mph N10.8 kmh N 10.5 mph16.9 kmh 30.39 in1029.1 mb 0.00 in0.0 mm 0.00 in0.0 mm 0.00 in0.0 mm
03:15 PM 43.7°F6.5°C 33.8°F1.0°C 67% 7.5 mph N12.1 kmh N 12.8 mph20.6 kmh 30.39 in1029.1 mb 0.00 in0.0 mm 0.00 in0.0 mm 0.00 in0.0 mm
03:20 PM 43.5°F6.4°C 33.8°F1.0°C 68% 6.1 mph N9.8 kmh N 12.8 mph20.6 kmh 30.39 in1029.1 mb 0.00 in0.0 mm 0.00 in0.0 mm 0.00 in0.0 mm
03:25 PM 43.3°F6.3°C 33.8°F1.0°C 68% 5.2 mph N8.4 kmh N 10.7 mph17.2 kmh 30.39 in1029.1 mb 0.00 in0.0 mm 0.00 in0.0 mm 0.00 in0.0 mm
03:30 PM 43.2°F6.2°C 33.8°F1.0°C 68% 6.0 mph N9.7 kmh N 11.0 mph17.7 kmh 30.39 in1029.1 mb 0.00 in0.0 mm 0.00 in0.0 mm 0.00 in0.0 mm
03:35 PM 42.6°F5.9°C 33.8°F1.0°C 68% 7.3 mph NNW11.7 kmh NNW 13.9 mph22.4 kmh 30.39 in1029.1 mb 0.00 in0.0 mm 0.00 in0.0 mm 0.00 in0.0 mm
03:40 PM 41.9°F5.5°C 33.8°F1.0°C 70% 7.7 mph NNW12.4 kmh NNW 13.9 mph22.4 kmh 30.39 in1029.1 mb 0.00 in0.0 mm 0.00 in0.0 mm 0.00 in0.0 mm
03:45 PM 41.5°F5.3°C 33.8°F1.0°C 71% 8.8 mph NNW14.2 kmh NNW 11.4 mph18.3 kmh 30.39 in1029.1 mb 0.00 in0.0 mm 0.00 in0.0 mm 0.00 in0.0 mm
03:50 PM 41.2°F5.1°C 33.8°F1.0°C 72% 7.1 mph NW11.4 kmh NW 11.4 mph18.3 kmh 30.39 in1029.1 mb 0.00 in0.0 mm 0.00 in0.0 mm 0.00 in0.0 mm
03:55 PM 41.2°F5.1°C 33.8°F1.0°C 72% 4.2 mph NNW6.8 kmh NNW 10.5 mph16.9 kmh 30.39 in1029.1 mb 0.00 in0.0 mm 0.00 in0.0 mm 0.00 in0.0 mm
04:00 PM 41.4°F5.2°C 33.8°F1.0°C 72% 5.2 mph NNW8.4 kmh NNW 10.3 mph16.6 kmh 30.39 in1029.1 mb 0.00 in0.0 mm 0.00 in0.0 mm 0.00 in0.0 mm
04:05 PM 41.5°F5.3°C 33.8°F1.0°C 72% 6.4 mph N10.3 kmh N 10.5 mph16.9 kmh 30.39 in1029.1 mb 0.00 in0.0 mm 0.00 in0.0 mm 0.00 in0.0 mm
04:10 PM 41.5°F5.3°C 33.8°F1.0°C 72% 5.7 mph N9.2 kmh N 10.5 mph16.9 kmh 30.39 in1029.1 mb 0.00 in0.0 mm 0.00 in0.0 mm 0.00 in0.0 mm
04:15 PM 41.9°F5.5°C 33.8°F1.0°C 71% 4.8 mph NNW7.7 kmh NNW 9.8 mph15.8 kmh 30.39 in1029.1 mb 0.00 in0.0 mm 0.00 in0.0 mm 0.00 in0.0 mm
04:20 PM 41.9°F5.5°C 33.8°F1.0°C 69% 4.3 mph NW6.9 kmh NW 9.8 mph15.8 kmh 30.42 in1030.1 mb 0.00 in0.0 mm 0.00 in0.0 mm 0.00 in0.0 mm
04:25 PM 41.7°F5.4°C 32.0°F0.0°C 69% 4.2 mph NW6.8 kmh NW 9.8 mph15.8 kmh 30.42 in1030.1 mb 0.00 in0.0 mm 0.00 in0.0 mm 0.00 in0.0 mm
04:30 PM 41.5°F5.3°C 32.0°F0.0°C 68% 4.3 mph NW6.9 kmh NW 7.4 mph11.9 kmh 30.42 in1030.1 mb 0.00 in0.0 mm 0.00 in0.0 mm 0.00 in0.0 mm
04:35 PM 41.4°F5.2°C 32.0°F0.0°C 68% 4.5 mph NNW7.2 kmh NNW 7.4 mph11.9 kmh 30.42 in1030.1 mb 0.00 in0.0 mm 0.00 in0.0 mm 0.00 in0.0 mm
04:40 PM 41.2°F5.1°C 32.0°F0.0°C 67% 4.3 mph NNW6.9 kmh NNW 5.8 mph9.3 kmh 30.42 in1030.1 mb 0.00 in0.0 mm 0.00 in0.0 mm 0.00 in0.0 mm
04:45 PM 41.2°F5.1°C 32.0°F0.0°C 67% 4.4 mph NNW7.1 kmh NNW 7.4 mph11.9 kmh 30.42 in1030.1 mb 0.00 in0.0 mm 0.00 in0.0 mm 0.00 in0.0 mm
04:50 PM 41.4°F5.2°C 32.0°F0.0°C 67% 4.5 mph NNW7.2 kmh NNW 7.4 mph11.9 kmh 30.42 in1030.1 mb 0.00 in0.0 mm 0.00 in0.0 mm 0.00 in0.0 mm
04:55 PM 41.4°F5.2°C 32.0°F0.0°C 67% 5.1 mph NW8.2 kmh NW 8.1 mph13.0 kmh 30.42 in1030.1 mb 0.00 in0.0 mm 0.00 in0.0 mm 0.00 in0.0 mm
05:00 PM 41.4°F5.2°C 32.0°F0.0°C 67% 5.6 mph NW9.0 kmh NW 8.1 mph13.0 kmh 30.42 in1030.1 mb 0.00 in0.0 mm 0.00 in0.0 mm 0.00 in0.0 mm
05:05 PM 41.4°F5.2°C 32.0°F0.0°C 68% 4.4 mph NW7.1 kmh NW 6.0 mph9.7 kmh 30.42 in1030.1 mb 0.00 in0.0 mm 0.00 in0.0 mm 0.00 in0.0 mm
05:10 PM 41.2°F5.1°C 32.0°F0.0°C 68% 5.2 mph NW8.4 kmh NW 6.5 mph10.5 kmh 30.42 in1030.1 mb 0.00 in0.0 mm 0.00 in0.0 mm 0.00 in0.0 mm
05:15 PM 41.2°F5.1°C 32.0°F0.0°C 68% 5.5 mph NNW8.9 kmh NNW 7.6 mph12.2 kmh 30.42 in1030.1 mb 0.00 in0.0 mm 0.00 in0.0 mm 0.00 in0.0 mm
05:20 PM 41.2°F5.1°C 32.0°F0.0°C 67% 4.8 mph NNW7.7 kmh NNW 7.6 mph12.2 kmh 30.45 in1031.2 mb 0.00 in0.0 mm 0.00 in0.0 mm 0.00 in0.0 mm
05:25 PM 41.2°F5.1°C 32.0°F0.0°C 67% 4.1 mph NNW6.6 kmh NNW 6.0 mph9.7 kmh 30.45 in1031.2 mb 0.00 in0.0 mm 0.00 in0.0 mm 0.00 in0.0 mm
05:30 PM 40.8°F4.9°C 32.0°F0.0°C 68% 5.9 mph NNE9.5 kmh NNE 11.0 mph17.7 kmh 30.45 in1031.2 mb 0.00 in0.0 mm 0.00 in0.0 mm 0.00 in0.0 mm
05:35 PM 40.1°F4.5°C 30.2°F-1.0°C 69% 7.5 mph NNE12.1 kmh NNE 11.0 mph17.7 kmh 30.45 in1031.2 mb 0.00 in0.0 mm 0.00 in0.0 mm 0.00 in0.0 mm
05:40 PM 40.1°F4.5°C 32.0°F0.0°C 70% 6.7 mph N10.8 kmh N 8.7 mph14.0 kmh 30.45 in1031.2 mb 0.00 in0.0 mm 0.00 in0.0 mm 0.00 in0.0 mm
05:45 PM 39.9°F4.4°C 30.2°F-1.0°C 70% 5.6 mph NNE9.0 kmh NNE 8.7 mph14.0 kmh 30.45 in1031.2 mb 0.00 in0.0 mm 0.00 in0.0 mm 0.00 in0.0 mm
05:50 PM 40.1°F4.5°C 32.0°F0.0°C 70% 5.2 mph N8.4 kmh N 7.2 mph11.6 kmh 30.45 in1031.2 mb 0.00 in0.0 mm 0.00 in0.0 mm 0.00 in0.0 mm
05:55 PM 40.3°F4.6°C 30.2°F-1.0°C 69% 5.7 mph N9.2 kmh N 7.2 mph11.6 kmh 30.45 in1031.2 mb 0.00 in0.0 mm 0.00 in0.0 mm 0.00 in0.0 mm
06:00 PM 40.3°F4.6°C 32.0°F0.0°C 70% 4.7 mph NNW7.6 kmh NNW 8.5 mph13.7 kmh 30.45 in1031.2 mb 0.00 in0.0 mm 0.00 in0.0 mm 0.00 in0.0 mm
06:05 PM 40.5°F4.7°C 30.2°F-1.0°C 69% 4.1 mph NNW6.6 kmh NNW 8.5 mph13.7 kmh 30.45 in1031.2 mb 0.00 in0.0 mm 0.00 in0.0 mm 0.00 in0.0 mm
06:10 PM 40.6°F4.8°C 32.0°F0.0°C 70% 3.9 mph N6.3 kmh N 7.2 mph11.6 kmh 30.45 in1031.2 mb 0.00 in0.0 mm 0.00 in0.0 mm 0.00 in0.0 mm
06:15 PM 40.6°F4.8°C 32.0°F0.0°C 70% 3.3 mph N5.3 kmh N 7.2 mph11.6 kmh 30.45 in1031.2 mb 0.00 in0.0 mm 0.00 in0.0 mm 0.00 in0.0 mm
06:20 PM 40.6°F4.8°C 32.0°F0.0°C 70% 3.0 mph NW4.8 kmh NW 4.9 mph7.9 kmh 30.45 in1031.2 mb 0.00 in0.0 mm 0.00 in0.0 mm 0.00 in0.0 mm
06:25 PM 40.6°F4.8°C 30.2°F-1.0°C 69% 3.8 mph NW6.1 kmh NW 6.0 mph9.7 kmh 30.45 in1031.2 mb 0.00 in0.0 mm 0.00 in0.0 mm 0.00 in0.0 mm
06:30 PM 40.6°F4.8°C 30.2°F-1.0°C 69% 3.1 mph NW5.0 kmh NW 6.0 mph9.7 kmh 30.45 in1031.2 mb 0.00 in0.0 mm 0.00 in0.0 mm 0.00 in0.0 mm
06:35 PM 40.8°F4.9°C 32.0°F0.0°C 69% 2.5 mph N4.0 kmh N 4.0 mph6.4 kmh 30.48 in1032.2 mb 0.00 in0.0 mm 0.00 in0.0 mm 0.00 in0.0 mm
06:40 PM 40.8°F4.9°C 32.0°F0.0°C 68% 3.5 mph NNW5.6 kmh NNW 7.4 mph11.9 kmh 30.48 in1032.2 mb 0.00 in0.0 mm 0.00 in0.0 mm 0.00 in0.0 mm
06:45 PM 41.0°F5.0°C 32.0°F0.0°C 67% 5.0 mph NNW8.0 kmh NNW 7.6 mph12.2 kmh 30.48 in1032.2 mb 0.00 in0.0 mm 0.00 in0.0 mm 0.00 in0.0 mm
06:50 PM 41.0°F5.0°C 30.2°F-1.0°C 66% 5.0 mph NW8.0 kmh NW 7.6 mph12.2 kmh 30.48 in1032.2 mb 0.00 in0.0 mm 0.00 in0.0 mm 0.00 in0.0 mm
06:55 PM 41.0°F5.0°C 32.0°F0.0°C 67% 5.2 mph NNW8.4 kmh NNW 8.7 mph14.0 kmh 30.48 in1032.2 mb 0.00 in0.0 mm 0.00 in0.0 mm 0.00 in0.0 mm
07:00 PM 41.2°F5.1°C 32.0°F0.0°C 67% 5.6 mph NNW9.0 kmh NNW 10.1 mph16.3 kmh 30.48 in1032.2 mb 0.00 in0.0 mm 0.00 in0.0 mm 0.00 in0.0 mm
07:05 PM 41.2°F5.1°C 30.2°F-1.0°C 66% 5.8 mph NNW9.3 kmh NNW 10.1 mph16.3 kmh 30.48 in1032.2 mb 0.00 in0.0 mm 0.00 in0.0 mm 0.00 in0.0 mm
07:10 PM 41.4°F5.2°C 30.2°F-1.0°C 65% 8.8 mph NNW14.2 kmh NNW 14.8 mph23.8 kmh 30.48 in1032.2 mb 0.00 in0.0 mm 0.00 in0.0 mm 0.00 in0.0 mm
07:15 PM 41.4°F5.2°C 30.2°F-1.0°C 64% 8.6 mph N13.8 kmh N 14.8 mph23.8 kmh 30.48 in1032.2 mb 0.00 in0.0 mm 0.00 in0.0 mm 0.00 in0.0 mm
07:20 PM 41.2°F5.1°C 30.2°F-1.0°C 64% 6.5 mph NNW10.5 kmh NNW 12.8 mph20.6 kmh 30.48 in1032.2 mb 0.00 in0.0 mm 0.00 in0.0 mm 0.00 in0.0 mm
07:25 PM 41.2°F5.1°C 30.2°F-1.0°C 64% 5.4 mph N8.7 kmh N 9.6 mph15.4 kmh 30.48 in1032.2 mb 0.00 in0.0 mm 0.00 in0.0 mm 0.00 in0.0 mm
07:30 PM 41.2°F5.1°C 30.2°F-1.0°C 64% 6.2 mph NNW10.0 kmh NNW 9.6 mph15.4 kmh 30.48 in1032.2 mb 0.00 in0.0 mm 0.00 in0.0 mm 0.00 in0.0 mm
07:35 PM 41.0°F5.0°C 30.2°F-1.0°C 64% 5.5 mph NNW8.9 kmh NNW 10.3 mph16.6 kmh 30.48 in1032.2 mb 0.00 in0.0 mm 0.00 in0.0 mm 0.00 in0.0 mm
07:40 PM 41.0°F5.0°C 30.2°F-1.0°C 65% 4.5 mph NNW7.2 kmh NNW 10.3 mph16.6 kmh 30.48 in1032.2 mb 0.00 in0.0 mm 0.00 in0.0 mm 0.00 in0.0 mm
07:45 PM 41.0°F5.0°C 30.2°F-1.0°C 66% 4.2 mph NNW6.8 kmh NNW 7.2 mph11.6 kmh 30.48 in1032.2 mb 0.00 in0.0 mm 0.00 in0.0 mm 0.00 in0.0 mm
07:50 PM 41.0°F5.0°C 30.2°F-1.0°C 66% 4.1 mph NNW6.6 kmh NNW 7.2 mph11.6 kmh 30.48 in1032.2 mb 0.00 in0.0 mm 0.00 in0.0 mm 0.00 in0.0 mm
07:55 PM 41.0°F5.0°C 30.2°F-1.0°C 66% 4.5 mph NNW7.2 kmh NNW 7.4 mph11.9 kmh 30.48 in1032.2 mb 0.00 in0.0 mm 0.00 in0.0 mm 0.00 in0.0 mm
08:00 PM 41.0°F5.0°C 30.2°F-1.0°C 65% 4.7 mph NNW7.6 kmh NNW 7.4 mph11.9 kmh 30.48 in1032.2 mb 0.00 in0.0 mm 0.00 in0.0 mm 0.00 in0.0 mm
08:05 PM 41.0°F5.0°C 30.2°F-1.0°C 65% 5.0 mph N8.0 kmh N 9.6 mph15.4 kmh 30.48 in1032.2 mb 0.00 in0.0 mm 0.00 in0.0 mm 0.00 in0.0 mm
08:10 PM 41.0°F5.0°C 30.2°F-1.0°C 65% 5.7 mph NNW9.2 kmh NNW 10.5 mph16.9 kmh 30.48 in1032.2 mb 0.00 in0.0 mm 0.00 in0.0 mm 0.00 in0.0 mm
08:15 PM 41.0°F5.0°C 30.2°F-1.0°C 64% 5.4 mph NNW8.7 kmh NNW 10.5 mph16.9 kmh 30.48 in1032.2 mb 0.00 in0.0 mm 0.00 in0.0 mm 0.00 in0.0 mm
08:20 PM 41.0°F5.0°C 30.2°F-1.0°C 64% 5.1 mph N8.2 kmh N 6.5 mph10.5 kmh 30.48 in1032.2 mb 0.00 in0.0 mm 0.00 in0.0 mm 0.00 in0.0 mm
08:25 PM 41.0°F5.0°C 30.2°F-1.0°C 63% 4.9 mph NNW7.9 kmh NNW 7.6 mph12.2 kmh 30.48 in1032.2 mb 0.00 in0.0 mm 0.00 in0.0 mm 0.00 in0.0 mm
08:30 PM 41.0°F5.0°C 30.2°F-1.0°C 63% 4.8 mph N7.7 kmh N 7.6 mph12.2 kmh 30.48 in1032.2 mb 0.00 in0.0 mm 0.00 in0.0 mm 0.00 in0.0 mm
08:35 PM 41.0°F5.0°C 30.2°F-1.0°C 63% 3.6 mph N5.8 kmh N 5.8 mph9.3 kmh 30.48 in1032.2 mb 0.00 in0.0 mm 0.00 in0.0 mm 0.00 in0.0 mm
08:40 PM 41.0°F5.0°C 30.2°F-1.0°C 63% 3.4 mph NNW5.5 kmh NNW 6.3 mph10.1 kmh 30.48 in1032.2 mb 0.00 in0.0 mm 0.00 in0.0 mm 0.00 in0.0 mm
08:45 PM 41.0°F5.0°C 30.2°F-1.0°C 63% 3.7 mph NW6.0 kmh NW 6.3 mph10.1 kmh 30.48 in1032.2 mb 0.00 in0.0 mm 0.00 in0.0 mm 0.00 in0.0 mm
08:50 PM 41.0°F5.0°C 30.2°F-1.0°C 63% 4.6 mph NNW7.4 kmh NNW 7.6 mph12.2 kmh 30.51 in1033.2 mb 0.00 in0.0 mm 0.00 in0.0 mm 0.00 in0.0 mm
08:55 PM 41.0°F5.0°C 30.2°F-1.0°C 63% 4.8 mph NNW7.7 kmh NNW 7.6 mph12.2 kmh 30.51 in1033.2 mb 0.00 in0.0 mm 0.00 in0.0 mm 0.00 in0.0 mm
09:00 PM 41.0°F5.0°C 30.2°F-1.0°C 63% 3.5 mph NNW5.6 kmh NNW 6.5 mph10.5 kmh 30.51 in1033.2 mb 0.00 in0.0 mm 0.00 in0.0 mm 0.00 in0.0 mm
09:05 PM 40.8°F4.9°C 30.2°F-1.0°C 63% 2.3 mph N3.7 kmh N 4.3 mph6.9 kmh 30.51 in1033.2 mb 0.00 in0.0 mm 0.00 in0.0 mm 0.00 in0.0 mm
09:10 PM 40.6°F4.8°C 28.4°F-2.0°C 63% 1.6 mph NNW2.6 kmh NNW 4.0 mph6.4 kmh 30.51 in1033.2 mb 0.00 in0.0 mm 0.00 in0.0 mm 0.00 in0.0 mm
09:15 PM 40.8°F4.9°C 30.2°F-1.0°C 63% 1.6 mph NW2.6 kmh NW 4.0 mph6.4 kmh 30.51 in1033.2 mb 0.00 in0.0 mm 0.00 in0.0 mm 0.00 in0.0 mm
09:20 PM 40.8°F4.9°C 30.2°F-1.0°C 64% 2.8 mph N4.5 kmh N 6.3 mph10.1 kmh 30.51 in1033.2 mb 0.00 in0.0 mm 0.00 in0.0 mm 0.00 in0.0 mm
09:25 PM 40.8°F4.9°C 30.2°F-1.0°C 63% 3.4 mph N5.5 kmh N 6.3 mph10.1 kmh 30.51 in1033.2 mb 0.00 in0.0 mm 0.00 in0.0 mm 0.00 in0.0 mm
09:30 PM 41.0°F5.0°C 30.2°F-1.0°C 63% 2.5 mph N4.0 kmh N 3.8 mph6.1 kmh 30.51 in1033.2 mb 0.00 in0.0 mm 0.00 in0.0 mm 0.00 in0.0 mm
09:35 PM 41.0°F5.0°C 30.2°F-1.0°C 63% 3.5 mph N5.6 kmh N 7.4 mph11.9 kmh 30.51 in1033.2 mb 0.00 in0.0 mm 0.00 in0.0 mm 0.00 in0.0 mm
09:40 PM 41.0°F5.0°C 30.2°F-1.0°C 63% 3.8 mph NNW6.1 kmh NNW 7.4 mph11.9 kmh 30.51 in1033.2 mb 0.00 in0.0 mm 0.00 in0.0 mm 0.00 in0.0 mm
09:45 PM 40.8°F4.9°C 30.2°F-1.0°C 63% 3.1 mph N5.0 kmh N 6.3 mph10.1 kmh 30.51 in1033.2 mb 0.00 in0.0 mm 0.00 in0.0 mm 0.00 in0.0 mm
09:50 PM 40.8°F4.9°C 30.2°F-1.0°C 63% 2.9 mph N4.7 kmh N 4.9 mph7.9 kmh 30.51 in1033.2 mb 0.00 in0.0 mm 0.00 in0.0 mm 0.00 in0.0 mm
09:55 PM 40.8°F4.9°C 28.4°F-2.0°C 62% 3.2 mph N5.1 kmh N 5.4 mph8.7 kmh 30.51 in1033.2 mb 0.00 in0.0 mm 0.00 in0.0 mm 0.00 in0.0 mm
10:00 PM 40.6°F4.8°C 28.4°F-2.0°C 62% 3.3 mph N5.3 kmh N 5.4 mph8.7 kmh 30.51 in1033.2 mb 0.00 in0.0 mm 0.00 in0.0 mm 0.00 in0.0 mm
10:05 PM 40.6°F4.8°C 28.4°F-2.0°C 62% 2.7 mph N4.3 kmh N 4.9 mph7.9 kmh 30.51 in1033.2 mb 0.00 in0.0 mm 0.00 in0.0 mm 0.00 in0.0 mm
10:10 PM 40.6°F4.8°C 28.4°F-2.0°C 62% 2.7 mph N4.3 kmh N 4.0 mph6.4 kmh 30.51 in1033.2 mb 0.00 in0.0 mm 0.00 in0.0 mm 0.00 in0.0 mm
10:15 PM 40.5°F4.7°C 28.4°F-2.0°C 62% 1.9 mph NNW3.1 kmh NNW 4.0 mph6.4 kmh 30.51 in1033.2 mb 0.00 in0.0 mm 0.00 in0.0 mm 0.00 in0.0 mm
10:20 PM 40.5°F4.7°C 28.4°F-2.0°C 63% 1.2 mph NW1.9 kmh NW 2.7 mph4.3 kmh 30.51 in1033.2 mb 0.00 in0.0 mm 0.00 in0.0 mm 0.00 in0.0 mm
10:25 PM 40.5°F4.7°C 28.4°F-2.0°C 63% 1.0 mph NW1.6 kmh NW 2.7 mph4.3 kmh 30.51 in1033.2 mb 0.00 in0.0 mm 0.00 in0.0 mm 0.00 in0.0 mm
10:30 PM 40.5°F4.7°C 28.4°F-2.0°C 63% 1.8 mph ENE2.9 kmh ENE 5.4 mph8.7 kmh 30.51 in1033.2 mb 0.00 in0.0 mm 0.00 in0.0 mm 0.00 in0.0 mm
10:35 PM 40.5°F4.7°C 28.4°F-2.0°C 63% 2.8 mph NE4.5 kmh NE 5.8 mph9.3 kmh 30.54 in1034.2 mb 0.00 in0.0 mm 0.00 in0.0 mm 0.00 in0.0 mm
10:40 PM 40.5°F4.7°C 28.4°F-2.0°C 63% 3.2 mph N5.1 kmh N 5.8 mph9.3 kmh 30.54 in1034.2 mb 0.00 in0.0 mm 0.00 in0.0 mm 0.00 in0.0 mm
10:45 PM 40.5°F4.7°C 28.4°F-2.0°C 62% 4.1 mph NNE6.6 kmh NNE 7.6 mph12.2 kmh 30.54 in1034.2 mb 0.00 in0.0 mm 0.00 in0.0 mm 0.00 in0.0 mm
10:50 PM 40.5°F4.7°C 28.4°F-2.0°C 62% 5.2 mph NE8.4 kmh NE 7.6 mph12.2 kmh 30.54 in1034.2 mb 0.00 in0.0 mm 0.00 in0.0 mm 0.00 in0.0 mm
10:55 PM 40.5°F4.7°C 28.4°F-2.0°C 62% 4.7 mph N7.6 kmh N 7.4 mph11.9 kmh 30.54 in1034.2 mb 0.00 in0.0 mm 0.00 in0.0 mm 0.00 in0.0 mm
11:00 PM 40.3°F4.6°C 28.4°F-2.0°C 62% 2.6 mph NW4.2 kmh NW 6.5 mph10.5 kmh 30.54 in1034.2 mb 0.00 in0.0 mm 0.00 in0.0 mm 0.00 in0.0 mm
11:05 PM 40.3°F4.6°C 28.4°F-2.0°C 62% 2.5 mph NNW4.0 kmh NNW 6.5 mph10.5 kmh 30.54 in1034.2 mb 0.00 in0.0 mm 0.00 in0.0 mm 0.00 in0.0 mm
11:10 PM 40.3°F4.6°C 28.4°F-2.0°C 62% 3.1 mph N5.0 kmh N 6.3 mph10.1 kmh 30.54 in1034.2 mb 0.00 in0.0 mm 0.00 in0.0 mm 0.00 in0.0 mm
11:15 PM 40.1°F4.5°C 28.4°F-2.0°C 62% 2.2 mph NW3.5 kmh NW 3.8 mph6.1 kmh 30.54 in1034.2 mb 0.00 in0.0 mm 0.00 in0.0 mm 0.00 in0.0 mm
11:20 PM 40.1°F4.5°C 28.4°F-2.0°C 62% 2.3 mph NW3.7 kmh NW 4.0 mph6.4 kmh 30.54 in1034.2 mb 0.00 in0.0 mm 0.00 in0.0 mm 0.00 in0.0 mm
11:25 PM 40.3°F4.6°C 28.4°F-2.0°C 62% 2.6 mph NNW4.2 kmh NNW 4.0 mph6.4 kmh 30.54 in1034.2 mb 0.00 in0.0 mm 0.00 in0.0 mm 0.00 in0.0 mm
11:30 PM 40.1°F4.5°C 28.4°F-2.0°C 62% 2.4 mph NNW3.9 kmh NNW 3.6 mph5.8 kmh 30.54 in1034.2 mb 0.00 in0.0 mm 0.00 in0.0 mm 0.00 in0.0 mm
11:35 PM 40.1°F4.5°C 28.4°F-2.0°C 62% 1.8 mph NNW2.9 kmh NNW 3.6 mph5.8 kmh 30.54 in1034.2 mb 0.00 in0.0 mm 0.00 in0.0 mm 0.00 in0.0 mm
11:40 PM 39.9°F4.4°C 28.4°F-2.0°C 63% 0.6 mph NW1.0 kmh NW 2.5 mph4.0 kmh 30.54 in1034.2 mb 0.00 in0.0 mm 0.00 in0.0 mm 0.00 in0.0 mm
11:45 PM 39.9°F4.4°C 28.4°F-2.0°C 63% 0.4 mph NW0.6 kmh NW 1.6 mph2.6 kmh 30.54 in1034.2 mb 0.00 in0.0 mm 0.00 in0.0 mm 0.00 in0.0 mm
11:50 PM 39.9°F4.4°C 28.4°F-2.0°C 63% 1.3 mph NNW2.1 kmh NNW 3.6 mph5.8 kmh 30.54 in1034.2 mb 0.00 in0.0 mm 0.00 in0.0 mm 0.00 in0.0 mm
11:55 PM 40.1°F4.5°C 30.2°F-1.0°C 64% 2.0 mph NNW3.2 kmh NNW 3.8 mph6.1 kmh 30.54 in1034.2 mb 0.00 in0.0 mm 0.00 in0.0 mm 0.00 in0.0 mm